METAR AND TAF INFORMATION
METAR FOR UASK
ADDS - METARS form results

(0409 UTC 26 August 2019)
Data provider http://aviationweather.gov/metar/data/
 
METAR text: UASK 260400Z VRB01MPS 9999 NSC 21/14 Q1016 R12/090060 NOSIG RMK QFE737/0982
Conditions at: UASK (UST KAMENOGORSK , RU) observed 0400 UTC 26 August 2019
Temperature: 21.0°C (70°F)
Dewpoint: 14.0°C (57°F) [RH = 64%]
Pressure (altimeter): 30.00 inches Hg (1016.0 mb)
Winds: variable direction winds at 2 MPH (2 knots; 1.0 m/s)
Visibility: 6 or more miles (10+ km)
Ceiling: at least 12,000 feet AGL
Clouds: sky clear below 12,000 feet AGL
Weather: no significant weather observed at this time

METAR text: UASK 260330Z 00000MPS 7000 NSC 20/15 Q1016 R30/090060 NOSIG RMK QFE737/0982
Conditions at: UASK (UST KAMENOGORSK , RU) observed 0330 UTC 26 August 2019
Temperature: 20.0°C (68°F)
Dewpoint: 15.0°C (59°F) [RH = 73%]
Pressure (altimeter): 30.00 inches Hg (1016.0 mb)
Winds: calm
Visibility: 4 miles ( 7 km)
Ceiling: at least 12,000 feet AGL
Clouds: sky clear below 12,000 feet AGL
Weather: no significant weather observed at this time

Forecast for: UASK (UST KAMENOGORSK , RU)
Text: TAF UASK 260204Z 2603/2612 VRB01MPS 9999 NSC
Forecast period: 0300 to 0500 UTC 26 August 2019
Forecast type: FROM: standard forecast or significant change
Winds: variable direction winds at 2 MPH (2 knots; 1.0 m/s)
Visibility: 6 or more miles 10+ km)
Ceiling: unknown
Clouds: missing
Weather: no significant weather forecast for this period
Text: TEMPO 2603/2605 5000 BR FEW006
Forecast period: 0300 to 0500 UTC 26 August 2019
Forecast type: TEMPORARY: The following changes expected for less than half the time period
Visibility: 3 miles (5 km)
Ceiling: at least 12,000 feet AGL
Clouds: few clouds at 600 feet AGL
Weather: BR  (mist)
Text: BECMG 2605/2606 07003MPS FEW050
Forecast period: 0500 to 1200 UTC 26 August 2019
Forecast type: BECOMING: Conditions expected to become as follows by 0600 UTC 26 August 2019
Winds: from the ENE (70 degrees) at 7 MPH (6 knots; 3.1 m/s)
Visibility: 6 or more miles 10+ km)
Ceiling: at least 12,000 feet AGL
Clouds: few clouds at 5000 feet AGL
Weather: no significant weather forecast for this period

 AIRPORT MAP

 RUNWAY INFORMATION

 AIRPORT FREQUENCIES
Type TWR Name TWR Frequency 134.5 MHZ

 AIRPORT NEAR NAVIGATION AIDS
Type NDB Name Ust Kamenogorsk Frequency 345 KHZ
Type NDB Name Ust Kamenogorsk Frequency 345 KHZ



2018 Air Astana Virtual Airline